createdAt,value
2018-07-14T00:00:00.772Z,99.99
2018-07-14T00:01:00.773Z,99.99
2018-07-14T00:02:00.790Z,99.99
2018-07-14T00:03:00.764Z,99.99
2018-07-14T00:04:00.764Z,99.99
2018-07-14T00:05:00.758Z,99.99
2018-07-14T00:06:00.757Z,99.99
2018-07-14T00:07:00.753Z,99.99
2018-07-14T00:08:00.755Z,99.99
2018-07-14T00:09:00.750Z,99.99
2018-07-14T00:10:00.795Z,99.99
2018-07-14T00:11:00.745Z,99.99
2018-07-14T00:12:00.742Z,99.99
2018-07-14T00:13:00.739Z,99.99
2018-07-14T00:14:00.738Z,99.99
2018-07-14T00:15:00.734Z,99.99
2018-07-14T00:16:00.735Z,99.99
2018-07-14T00:17:00.737Z,99.99
2018-07-14T00:18:00.744Z,99.99
2018-07-14T00:19:00.737Z,99.99
2018-07-14T00:20:00.725Z,99.99
2018-07-14T00:21:00.722Z,99.99
2018-07-14T00:22:00.721Z,99.99
2018-07-14T00:23:00.715Z,99.99
2018-07-14T00:24:00.721Z,99.99
2018-07-14T00:25:00.712Z,99.99
2018-07-14T00:26:00.713Z,99.99
2018-07-14T00:27:00.708Z,99.99
2018-07-14T00:28:00.709Z,99.99
2018-07-14T00:29:00.712Z,99.99
2018-07-14T00:30:00.699Z,99.99
2018-07-14T00:31:00.697Z,99.99
2018-07-14T00:32:00.697Z,99.99
2018-07-14T00:33:00.696Z,99.99
2018-07-14T00:34:00.687Z,99.99
2018-07-14T00:35:00.686Z,99.99
2018-07-14T00:36:00.686Z,99.99
2018-07-14T00:37:00.682Z,99.99
2018-07-14T00:38:00.689Z,99.99
2018-07-14T00:39:00.688Z,99.99
2018-07-14T00:40:00.674Z,99.99
2018-07-14T00:41:00.671Z,99.99
2018-07-14T00:42:00.669Z,99.99
2018-07-14T00:43:00.665Z,99.99
2018-07-14T00:44:00.663Z,99.99
2018-07-14T00:45:00.660Z,99.99
2018-07-14T00:46:00.661Z,99.99
2018-07-14T00:47:00.656Z,99.99
2018-07-14T00:48:00.665Z,99.99
2018-07-14T00:49:00.649Z,99.99
2018-07-14T00:50:00.649Z,99.99
2018-07-14T00:51:00.649Z,99.99
2018-07-14T00:52:00.647Z,99.99
2018-07-14T00:53:00.651Z,99.99
2018-07-14T00:54:00.641Z,99.99
2018-07-14T00:55:00.642Z,99.99
2018-07-14T00:56:00.635Z,99.99
2018-07-14T00:57:00.634Z,99.99
2018-07-14T00:58:00.640Z,99.99
2018-07-14T00:59:00.640Z,99.99
2018-07-14T01:00:00.635Z,99.99
2018-07-14T01:01:00.656Z,99.99
2018-07-14T01:02:00.625Z,99.99
2018-07-14T01:03:00.620Z,99.99
2018-07-14T01:04:00.611Z,99.99
2018-07-14T01:05:00.609Z,99.99
2018-07-14T01:06:00.607Z,99.99
2018-07-14T01:07:00.610Z,99.99
2018-07-14T01:08:00.600Z,99.99
2018-07-14T01:09:00.598Z,99.99
2018-07-14T01:10:00.594Z,99.99
2018-07-14T01:11:00.594Z,99.99
2018-07-14T01:12:00.593Z,99.99
2018-07-14T01:13:00.590Z,99.99
2018-07-14T01:14:00.591Z,99.99
2018-07-14T01:15:00.587Z,99.99
2018-07-14T01:16:00.582Z,99.99
2018-07-14T01:17:00.578Z,99.99
2018-07-14T01:18:00.576Z,99.99
2018-07-14T01:19:00.569Z,99.99
2018-07-14T01:20:00.574Z,99.99
2018-07-14T01:21:00.568Z,99.99
2018-07-14T01:22:00.562Z,99.99
2018-07-14T01:23:00.576Z,99.99
2018-07-14T01:24:00.557Z,99.99
2018-07-14T01:25:00.552Z,99.99
2018-07-14T01:26:00.550Z,99.99
2018-07-14T01:27:00.550Z,99.99
2018-07-14T01:28:00.547Z,99.99
2018-07-14T01:29:00.549Z,99.99
2018-07-14T01:30:00.537Z,99.99
2018-07-14T01:31:00.539Z,99.99
2018-07-14T01:32:00.545Z,99.99
2018-07-14T01:33:00.534Z,99.99
2018-07-14T01:34:00.529Z,99.99
2018-07-14T01:35:00.523Z,99.99
2018-07-14T01:36:00.523Z,99.99
2018-07-14T01:37:00.518Z,99.99
2018-07-14T01:38:00.516Z,99.99
2018-07-14T01:39:00.511Z,99.99
2018-07-14T01:40:00.506Z,99.99
2018-07-14T01:41:00.503Z,99.99
2018-07-14T01:42:00.501Z,99.99
2018-07-14T01:43:00.501Z,99.99
2018-07-14T01:44:00.497Z,99.99
2018-07-14T01:45:00.493Z,99.99
2018-07-14T01:46:00.494Z,99.99
2018-07-14T01:47:00.489Z,99.99
2018-07-14T01:48:00.490Z,99.99
2018-07-14T01:49:00.481Z,99.99
2018-07-14T01:50:00.485Z,99.99
2018-07-14T01:51:00.481Z,99.99
2018-07-14T01:52:00.471Z,99.99
2018-07-14T01:53:00.468Z,99.99
2018-07-14T01:54:00.466Z,99.99
2018-07-14T01:55:00.461Z,99.99
2018-07-14T01:56:00.458Z,99.99
2018-07-14T01:57:00.461Z,99.99
2018-07-14T01:58:00.457Z,99.99
2018-07-14T01:59:00.447Z,99.99
2018-07-14T02:00:00.446Z,99.99
2018-07-14T02:01:00.444Z,99.99
2018-07-14T02:02:00.442Z,99.99
2018-07-14T02:03:00.455Z,99.99
2018-07-14T02:04:00.435Z,99.99
2018-07-14T02:05:00.435Z,99.99
2018-07-14T02:06:00.431Z,99.99
2018-07-14T02:07:00.424Z,99.99
2018-07-14T02:08:00.429Z,99.99
2018-07-14T02:09:00.425Z,99.99
2018-07-14T02:10:00.416Z,99.99
2018-07-14T02:11:00.412Z,99.99
2018-07-14T02:12:00.410Z,99.99
2018-07-14T02:13:00.407Z,99.99
2018-07-14T02:14:00.406Z,99.99
2018-07-14T02:15:00.400Z,99.99
2018-07-14T02:16:00.393Z,99.99
2018-07-14T02:17:00.394Z,99.99
2018-07-14T02:18:00.395Z,99.99
2018-07-14T02:19:00.387Z,99.99
2018-07-14T02:20:00.386Z,99.99
2018-07-14T02:21:00.384Z,99.99
2018-07-14T02:22:00.375Z,99.99
2018-07-14T02:23:00.376Z,99.99
2018-07-14T02:24:00.379Z,99.99
2018-07-14T02:25:00.371Z,99.99
2018-07-14T02:26:00.366Z,99.99
2018-07-14T02:27:00.361Z,99.99
2018-07-14T02:28:00.358Z,99.99
2018-07-14T02:29:00.356Z,99.99
2018-07-14T02:30:00.363Z,99.99
2018-07-14T02:31:00.352Z,99.99
2018-07-14T02:32:00.346Z,99.99
2018-07-14T02:33:00.346Z,99.99
2018-07-14T02:34:00.335Z,99.99
2018-07-14T02:35:00.334Z,99.99
2018-07-14T02:36:00.333Z,99.99
2018-07-14T02:37:00.326Z,99.99
2018-07-14T02:38:00.328Z,99.99
2018-07-14T02:39:00.321Z,99.99
2018-07-14T02:40:00.320Z,99.99
2018-07-14T02:41:00.317Z,99.99
2018-07-14T02:42:00.312Z,99.99
2018-07-14T02:43:00.306Z,99.99
2018-07-14T02:44:00.303Z,99.99
2018-07-14T02:45:00.297Z,99.99
2018-07-14T02:46:00.305Z,99.99
2018-07-14T02:47:00.294Z,99.99
2018-07-14T02:48:00.295Z,99.99
2018-07-14T02:49:00.288Z,99.99
2018-07-14T02:50:00.280Z,99.99
2018-07-14T02:51:00.287Z,99.99
2018-07-14T02:52:00.274Z,99.99
2018-07-14T02:53:00.278Z,99.99
2018-07-14T02:54:00.277Z,99.99
2018-07-14T02:55:00.267Z,99.99
2018-07-14T02:56:00.261Z,99.99
2018-07-14T02:57:00.257Z,99.99
2018-07-14T02:58:00.253Z,99.99
2018-07-14T02:59:00.249Z,99.99
2018-07-14T03:00:00.246Z,99.99
2018-07-14T03:01:00.247Z,99.99
2018-07-14T03:02:00.244Z,99.99
2018-07-14T03:03:00.244Z,99.99
2018-07-14T03:04:00.235Z,99.99
2018-07-14T03:05:00.289Z,99.99
2018-07-14T03:06:00.227Z,99.99
2018-07-14T03:07:00.223Z,99.99
2018-07-14T03:08:00.234Z,99.99
2018-07-14T03:09:00.224Z,99.99
2018-07-14T03:10:00.215Z,99.99
2018-07-14T03:11:00.215Z,99.99
2018-07-14T03:12:00.206Z,99.99
2018-07-14T03:13:00.310Z,99.99
2018-07-14T03:14:00.238Z,99.99
2018-07-14T03:15:00.205Z,99.99
2018-07-14T03:16:00.196Z,99.99
2018-07-14T03:17:00.190Z,99.99
2018-07-14T03:18:00.195Z,99.99
2018-07-14T03:19:00.182Z,99.99
2018-07-14T03:20:00.176Z,99.99
2018-07-14T03:21:00.174Z,99.99
2018-07-14T03:22:00.167Z,99.99
2018-07-14T03:23:00.167Z,99.99
2018-07-14T03:24:00.164Z,99.99
2018-07-14T03:25:00.163Z,99.99
2018-07-14T03:26:00.154Z,99.99
2018-07-14T03:27:00.150Z,99.99
2018-07-14T03:28:00.152Z,99.99
2018-07-14T03:29:00.165Z,99.99
2018-07-14T03:30:00.149Z,99.99
2018-07-14T03:31:00.139Z,99.99
2018-07-14T03:32:00.139Z,99.99
2018-07-14T03:33:00.131Z,99.99
2018-07-14T03:34:00.125Z,99.99
2018-07-14T03:35:00.126Z,99.99
2018-07-14T03:36:00.121Z,99.99
2018-07-14T03:37:00.121Z,99.99
2018-07-14T03:38:00.116Z,99.99
2018-07-14T03:39:00.117Z,99.99
2018-07-14T03:40:00.135Z,99.99
2018-07-14T03:41:00.107Z,99.99
2018-07-14T03:42:00.114Z,99.99
2018-07-14T03:43:00.108Z,99.99
2018-07-14T03:44:00.103Z,99.99
2018-07-14T03:45:00.091Z,99.99
2018-07-14T03:46:00.094Z,99.99
2018-07-14T03:47:00.092Z,99.99
2018-07-14T03:48:00.091Z,99.99
2018-07-14T03:49:00.072Z,99.99
2018-07-14T03:50:00.092Z,99.99
2018-07-14T03:51:00.065Z,99.99
2018-07-14T03:52:00.064Z,99.99
2018-07-14T03:53:00.055Z,99.99
2018-07-14T03:54:00.053Z,99.99
2018-07-14T03:55:00.050Z,99.99
2018-07-14T03:56:00.046Z,99.99
2018-07-14T03:57:00.067Z,99.99
2018-07-14T03:58:00.038Z,99.99
2018-07-14T03:59:00.036Z,99.99
2018-07-14T04:00:00.040Z,99.99
2018-07-14T04:01:00.053Z,99.99
2018-07-14T04:02:00.028Z,99.99
2018-07-14T04:03:00.022Z,99.99
2018-07-14T04:04:00.022Z,99.99
2018-07-14T04:05:00.019Z,99.99
2018-07-14T04:06:00.018Z,99.99
2018-07-14T04:07:00.012Z,99.99
2018-07-14T04:08:00.002Z,99.99
2018-07-14T04:09:00.000Z,99.99
2018-07-14T04:09:59.995Z,99.99
2018-07-14T04:10:59.991Z,99.99
2018-07-14T04:11:59.988Z,99.99
2018-07-14T04:12:59.987Z,99.99
2018-07-14T04:13:59.990Z,99.99
2018-07-14T04:14:59.978Z,99.99
2018-07-14T04:15:59.980Z,99.99
2018-07-14T04:16:59.970Z,99.99
2018-07-14T04:17:59.966Z,99.99
2018-07-14T04:18:59.968Z,99.99
2018-07-14T04:19:59.957Z,99.99
2018-07-14T04:20:59.969Z,99.99
2018-07-14T04:21:59.956Z,99.99
2018-07-14T04:22:59.950Z,99.99
2018-07-14T04:23:59.949Z,99.99
2018-07-14T04:24:59.947Z,99.99
2018-07-14T04:25:59.941Z,99.99
2018-07-14T04:26:59.935Z,99.99
2018-07-14T04:27:59.939Z,99.99
2018-07-14T04:28:59.938Z,99.99
2018-07-14T04:29:59.932Z,99.99
2018-07-14T04:30:59.923Z,99.99
2018-07-14T04:31:59.998Z,99.99
2018-07-14T04:32:59.927Z,99.99
2018-07-14T04:33:59.909Z,99.99
2018-07-14T04:34:59.916Z,99.99
2018-07-14T04:35:59.907Z,99.99
2018-07-14T04:36:59.913Z,99.99
2018-07-14T04:37:59.897Z,99.99
2018-07-14T04:38:59.893Z,99.99
2018-07-14T04:39:59.887Z,99.99
2018-07-14T04:40:59.886Z,99.99
2018-07-14T04:41:59.884Z,99.99
2018-07-14T04:42:59.880Z,99.99
2018-07-14T04:43:59.879Z,99.99
2018-07-14T04:44:59.874Z,99.99
2018-07-14T04:45:59.873Z,99.99
2018-07-14T04:46:59.870Z,99.99
2018-07-14T04:47:59.862Z,99.99
2018-07-14T04:48:59.871Z,99.99
2018-07-14T04:49:59.855Z,99.99
2018-07-14T04:50:59.855Z,99.99
2018-07-14T04:51:59.853Z,99.99
2018-07-14T04:52:59.880Z,99.99
2018-07-14T04:53:59.841Z,99.99
2018-07-14T04:54:59.845Z,99.99
2018-07-14T04:55:59.837Z,99.99
2018-07-14T04:56:59.835Z,99.99
2018-07-14T04:57:59.829Z,99.99
2018-07-14T04:58:59.831Z,99.99
2018-07-14T04:59:59.821Z,99.99
2018-07-14T05:00:59.825Z,99.99
2018-07-14T05:01:59.852Z,99.99
2018-07-14T05:02:59.812Z,99.99
2018-07-14T05:03:59.811Z,99.99
2018-07-14T05:04:59.806Z,99.99
2018-07-14T05:05:59.803Z,99.99
2018-07-14T05:06:59.800Z,99.99
2018-07-14T05:07:59.794Z,99.99
2018-07-14T05:08:59.792Z,99.99
2018-07-14T05:09:59.788Z,99.99
2018-07-14T05:10:59.788Z,99.99
2018-07-14T05:11:59.794Z,99.99
2018-07-14T05:12:59.777Z,99.99
2018-07-14T05:13:59.773Z,99.99
2018-07-14T05:14:59.770Z,99.99
2018-07-14T05:15:59.773Z,99.99
2018-07-14T05:16:59.768Z,99.99
2018-07-14T05:17:59.764Z,99.99
2018-07-14T05:18:59.764Z,99.99
2018-07-14T05:19:59.755Z,99.99
2018-07-14T05:20:59.751Z,99.99
2018-07-14T05:21:59.746Z,99.99
2018-07-14T05:22:59.775Z,99.99
2018-07-14T05:23:59.752Z,99.99
2018-07-14T05:24:59.759Z,99.99
2018-07-14T05:25:59.738Z,99.99
2018-07-14T05:26:59.734Z,99.99
2018-07-14T05:27:59.729Z,99.99
2018-07-14T05:28:59.729Z,99.99
2018-07-14T05:29:59.729Z,99.99
2018-07-14T05:30:59.718Z,99.99
2018-07-14T05:31:59.733Z,99.99
2018-07-14T05:32:59.749Z,99.99
2018-07-14T05:33:59.718Z,99.99
2018-07-14T05:34:59.716Z,99.99
2018-07-14T05:35:59.706Z,99.99
2018-07-14T05:36:59.709Z,99.99
2018-07-14T05:37:59.705Z,99.99
2018-07-14T05:38:59.703Z,99.99
2018-07-14T05:39:59.696Z,99.99
2018-07-14T05:40:59.700Z,99.99
2018-07-14T05:41:59.707Z,99.99
2018-07-14T05:42:59.693Z,99.99
2018-07-14T05:43:59.742Z,99.99
2018-07-14T05:44:59.689Z,99.99
2018-07-14T05:45:59.710Z,99.99
2018-07-14T05:46:59.686Z,99.99
2018-07-14T05:47:59.684Z,99.99
2018-07-14T05:48:59.688Z,99.99
2018-07-14T05:49:59.687Z,99.87
2018-07-14T05:50:59.680Z,98.91
2018-07-14T05:51:59.703Z,98.05
2018-07-14T05:52:59.680Z,96.85
2018-07-14T05:53:59.675Z,97.24
2018-07-14T05:54:59.676Z,96.08
2018-07-14T05:55:59.672Z,96.08
2018-07-14T05:56:59.674Z,95.12
2018-07-14T05:57:59.672Z,94.26
2018-07-14T05:58:59.684Z,94.16
2018-07-14T05:59:59.670Z,94.64
2018-07-14T06:00:59.672Z,94.26
2018-07-14T06:01:59.669Z,94.64
2018-07-14T06:02:59.670Z,94.26
2018-07-14T06:03:59.669Z,93.97
2018-07-14T06:04:59.670Z,94.45
2018-07-14T06:05:59.673Z,94.16
2018-07-14T06:06:59.667Z,94.31
2018-07-14T06:07:59.690Z,94.40
2018-07-14T06:08:59.667Z,94.40
2018-07-14T06:09:59.671Z,93.82
2018-07-14T06:10:59.666Z,93.25
2018-07-14T06:11:59.665Z,92.86
2018-07-14T06:12:59.669Z,92.48
2018-07-14T06:13:59.665Z,93.10
2018-07-14T06:14:59.677Z,92.81
2018-07-14T06:15:59.664Z,91.66
2018-07-14T06:16:59.669Z,90.70
2018-07-14T06:17:59.664Z,90.89
2018-07-14T06:18:59.668Z,91.66
2018-07-14T06:19:59.670Z,91.75
2018-07-14T06:20:59.667Z,91.99
2018-07-14T06:21:59.671Z,90.84
2018-07-14T06:22:59.669Z,89.78
2018-07-14T06:23:59.670Z,89.69
2018-07-14T06:24:59.669Z,89.98
2018-07-14T06:25:59.666Z,89.59
2018-07-14T06:26:59.670Z,89.88
2018-07-14T06:27:59.670Z,89.21
2018-07-14T06:28:59.676Z,89.11
2018-07-14T06:29:59.671Z,89.54
2018-07-14T06:30:59.672Z,88.24
2018-07-14T06:31:59.731Z,88.73
2018-07-14T06:32:59.686Z,88.53
2018-07-14T06:33:59.690Z,88.87
2018-07-14T06:34:59.686Z,88.39
2018-07-14T06:35:59.677Z,89.15
2018-07-14T06:36:59.683Z,88.67
2018-07-14T06:37:59.681Z,88.71
2018-07-14T06:38:59.686Z,87.95
2018-07-14T06:39:59.707Z,87.37
2018-07-14T06:40:59.691Z,87.18
2018-07-14T06:41:59.689Z,87.37
2018-07-14T06:42:59.694Z,87.51
2018-07-14T06:43:59.695Z,86.93
2018-07-14T06:44:59.699Z,86.26
2018-07-14T06:45:59.698Z,86.83
2018-07-14T06:46:59.704Z,86.01
2018-07-14T06:47:59.698Z,84.18
2018-07-14T06:48:59.709Z,84.09
2018-07-14T06:49:59.705Z,84.80
2018-07-14T06:50:59.711Z,84.03
2018-07-14T06:51:59.714Z,82.68
2018-07-14T06:53:00.647Z,81.81
2018-07-14T06:53:59.717Z,81.43
2018-07-14T06:54:59.719Z,81.62
2018-07-14T06:55:59.723Z,81.62
2018-07-14T06:56:59.735Z,82.10
2018-07-14T06:57:59.754Z,82.16
2018-07-14T06:58:59.731Z,82.35
2018-07-14T06:59:59.741Z,82.35
2018-07-14T07:00:59.742Z,82.16
2018-07-14T07:01:59.750Z,83.31
2018-07-14T07:02:59.750Z,84.42
2018-07-14T07:03:59.757Z,83.55
2018-07-14T07:04:59.757Z,82.05
2018-07-14T07:05:59.757Z,81.66
2018-07-14T07:06:59.768Z,80.41
2018-07-14T07:07:59.787Z,80.93
2018-07-14T07:08:59.774Z,79.10
2018-07-14T07:09:59.775Z,78.42
2018-07-14T07:10:59.785Z,77.94
2018-07-14T07:11:59.786Z,79.00
2018-07-14T07:12:59.787Z,79.16
2018-07-14T07:13:59.799Z,80.41
2018-07-14T07:14:59.796Z,80.89
2018-07-14T07:15:59.804Z,80.31
2018-07-14T07:16:59.803Z,79.74
2018-07-14T07:17:59.809Z,80.79
2018-07-14T07:18:59.814Z,80.89
2018-07-14T07:19:59.816Z,78.96
2018-07-14T07:20:59.821Z,78.38
2018-07-14T07:21:59.827Z,80.31
2018-07-14T07:22:59.829Z,79.44
2018-07-14T07:23:59.837Z,79.54
2018-07-14T07:24:59.846Z,80.08
2018-07-14T07:25:59.848Z,80.27
2018-07-14T07:26:59.850Z,81.62
2018-07-14T07:27:59.854Z,82.01
2018-07-14T07:28:59.862Z,81.72
2018-07-14T07:29:59.862Z,82.10
2018-07-14T07:30:59.871Z,82.39
2018-07-14T07:31:59.872Z,82.39
2018-07-14T07:32:59.877Z,82.43
2018-07-14T07:33:59.933Z,80.93
2018-07-14T07:34:59.897Z,80.54
2018-07-14T07:35:59.896Z,77.98
2018-07-14T07:36:59.899Z,77.01
2018-07-14T07:37:59.898Z,76.57
2018-07-14T07:38:59.908Z,75.79
2018-07-14T07:39:59.926Z,74.73
2018-07-14T07:40:59.918Z,74.83
2018-07-14T07:41:59.951Z,75.84
2018-07-14T07:42:59.930Z,74.00
2018-07-14T07:43:59.930Z,72.30
2018-07-14T07:44:59.952Z,70.84
2018-07-14T07:45:59.940Z,70.84
2018-07-14T07:46:59.946Z,71.08
2018-07-14T07:47:59.956Z,70.20
2018-07-14T07:48:59.959Z,68.79
2018-07-14T07:49:59.962Z,67.72
2018-07-14T07:50:59.968Z,67.59
2018-07-14T07:51:59.989Z,68.49
2018-07-14T07:52:59.985Z,67.63
2018-07-14T07:53:59.987Z,67.05
2018-07-14T07:54:59.988Z,67.72
2018-07-14T07:56:00.001Z,66.37
2018-07-14T07:57:00.004Z,65.79
2018-07-14T07:58:00.688Z,66.91
2018-07-14T07:59:00.034Z,67.40
2018-07-14T08:00:00.042Z,67.49
2018-07-14T08:01:00.031Z,67.59
2018-07-14T08:02:00.039Z,67.11
2018-07-14T08:03:00.043Z,68.56
2018-07-14T08:04:00.045Z,68.66
2018-07-14T08:05:00.049Z,67.91
2018-07-14T08:06:00.054Z,67.95
2018-07-14T08:07:00.066Z,66.02
2018-07-14T08:08:00.071Z,65.37
2018-07-14T08:09:00.101Z,63.17
2018-07-14T08:10:00.087Z,63.04
2018-07-14T08:11:00.098Z,64.34
2018-07-14T08:12:00.097Z,62.79
2018-07-14T08:13:00.125Z,61.52
2018-07-14T08:14:00.116Z,61.49
2018-07-14T08:15:00.135Z,62.63
2018-07-14T08:16:00.143Z,63.53
2018-07-14T08:17:00.130Z,64.59
2018-07-14T08:18:00.164Z,63.24
2018-07-14T08:19:00.144Z,63.21
2018-07-14T08:20:00.160Z,63.21
2018-07-14T08:21:00.178Z,64.14
2018-07-14T08:22:00.160Z,65.59
2018-07-14T08:23:00.190Z,65.88
2018-07-14T08:24:00.174Z,65.37
2018-07-14T08:25:00.192Z,65.20
2018-07-14T08:26:00.208Z,64.62
2018-07-14T08:27:00.216Z,64.40
2018-07-14T08:28:00.236Z,65.95
2018-07-14T08:29:00.205Z,67.14
2018-07-14T08:30:00.221Z,66.50
2018-07-14T08:31:00.220Z,64.50
2018-07-14T08:32:00.227Z,62.82
2018-07-14T08:33:00.238Z,62.75
2018-07-14T08:34:00.258Z,62.72
2018-07-14T08:35:00.250Z,64.69
2018-07-14T08:36:00.254Z,62.49
2018-07-14T08:37:01.224Z,62.49
2018-07-14T08:38:00.307Z,60.55
2018-07-14T08:39:00.282Z,60.46
2018-07-14T08:40:00.286Z,60.24
2018-07-14T08:41:00.295Z,62.24
2018-07-14T08:42:00.303Z,62.43
2018-07-14T08:43:00.334Z,62.53
2018-07-14T08:44:00.319Z,62.43
2018-07-14T08:45:00.320Z,64.47
2018-07-14T08:46:00.330Z,65.56
2018-07-14T08:47:00.360Z,62.10
2018-07-14T08:48:00.348Z,60.30
2018-07-14T08:49:00.352Z,60.32
2018-07-14T08:50:00.365Z,58.97
2018-07-14T08:51:00.377Z,58.67
2018-07-14T08:52:00.376Z,58.77
2018-07-14T08:53:01.232Z,58.70
2018-07-14T08:54:00.390Z,57.06
2018-07-14T08:55:00.397Z,57.83
2018-07-14T08:56:00.418Z,58.73
2018-07-14T08:57:00.420Z,56.96
2018-07-14T08:58:00.423Z,56.09
2018-07-14T08:59:00.433Z,57.03
2018-07-14T09:00:00.450Z,57.68
2018-07-14T09:01:00.469Z,58.36
2018-07-14T09:02:00.456Z,58.84
2018-07-14T09:03:00.466Z,58.94
2018-07-14T09:04:00.477Z,56.90
2018-07-14T09:05:00.487Z,58.14
2018-07-14T09:06:00.486Z,58.91
2018-07-14T09:07:00.506Z,59.39
2018-07-14T09:08:00.509Z,60.10
2018-07-14T09:09:00.517Z,58.87
2018-07-14T09:10:00.524Z,57.80
2018-07-14T09:11:00.530Z,58.39
2018-07-14T09:12:00.540Z,58.26
2018-07-14T09:13:00.546Z,58.06
2018-07-14T09:14:00.560Z,58.65
2018-07-14T09:15:01.248Z,58.26
2018-07-14T09:16:00.571Z,57.78
2018-07-14T09:17:02.242Z,57.80
2018-07-14T09:18:00.595Z,59.09
2018-07-14T09:19:00.604Z,57.06
2018-07-14T09:20:00.617Z,56.70
2018-07-14T09:21:00.617Z,55.55
2018-07-14T09:22:00.625Z,54.20
2018-07-14T09:23:00.640Z,54.10
2018-07-14T09:24:00.646Z,54.36
2018-07-14T09:25:00.660Z,55.94
2018-07-14T09:26:00.711Z,55.94
2018-07-14T09:27:00.697Z,54.35
2018-07-14T09:28:00.685Z,53.69
2018-07-14T09:29:00.690Z,51.97
2018-07-14T09:30:00.715Z,50.65
2018-07-14T09:31:00.708Z,52.96
2018-07-14T09:32:00.725Z,53.22
2018-07-14T09:33:00.727Z,53.49
2018-07-14T09:34:00.739Z,54.31
2018-07-14T09:35:00.764Z,55.16
2018-07-14T09:36:00.763Z,57.19
2018-07-14T09:37:00.771Z,58.84
2018-07-14T09:38:00.841Z,58.09
2018-07-14T09:39:00.785Z,57.64
2018-07-14T09:40:00.803Z,55.31
2018-07-14T09:41:00.800Z,56.09
2018-07-14T09:42:00.810Z,55.82
2018-07-14T09:43:00.831Z,54.46
2018-07-14T09:44:00.840Z,55.60
2018-07-14T09:45:00.843Z,56.67
2018-07-14T09:46:00.849Z,54.78
2018-07-14T09:47:00.863Z,54.32
2018-07-14T09:48:00.883Z,52.89
2018-07-14T09:49:00.880Z,54.54
2018-07-14T09:50:00.884Z,53.59
2018-07-14T09:51:00.923Z,53.69
2018-07-14T09:52:00.908Z,52.75
2018-07-14T09:53:00.933Z,50.92
2018-07-14T09:54:00.950Z,50.34
2018-07-14T09:55:00.933Z,49.83
2018-07-14T09:56:00.943Z,50.80
2018-07-14T09:57:00.952Z,51.67
2018-07-14T09:58:00.961Z,51.41
2018-07-14T09:59:00.971Z,50.46
2018-07-14T10:00:01.000Z,49.88
2018-07-14T10:01:00.993Z,49.22
2018-07-14T10:02:01.002Z,48.05
2018-07-14T10:03:01.023Z,47.36
2018-07-14T10:04:01.022Z,49.99
2018-07-14T10:05:01.029Z,47.27
2018-07-14T10:06:01.051Z,47.63
2018-07-14T10:07:01.054Z,48.49
2018-07-14T10:08:01.090Z,48.17
2018-07-14T10:09:01.076Z,50.70
2018-07-14T10:10:01.170Z,50.24
2018-07-14T10:11:01.099Z,49.27
2018-07-14T10:12:01.101Z,48.58
2018-07-14T10:13:01.154Z,49.10
2018-07-14T10:14:01.127Z,49.61
2018-07-14T10:15:01.315Z,48.46
2018-07-14T10:16:01.153Z,47.09
2018-07-14T10:17:01.157Z,47.27
2018-07-14T10:18:01.167Z,46.49
2018-07-14T10:19:01.174Z,46.83
2018-07-14T10:20:01.196Z,49.02
2018-07-14T10:21:01.210Z,51.12
2018-07-14T10:22:01.210Z,50.16
2018-07-14T10:23:01.225Z,47.36
2018-07-14T10:24:01.232Z,47.46
2018-07-14T10:25:01.305Z,47.27
2018-07-14T10:26:01.314Z,47.92
2018-07-14T10:27:01.264Z,46.95
2018-07-14T10:28:01.286Z,48.29
2018-07-14T10:29:01.327Z,49.76
2018-07-14T10:30:01.299Z,49.37
2018-07-14T10:31:01.313Z,48.61
2018-07-14T10:32:01.320Z,49.39
2018-07-14T10:33:01.339Z,48.61
2018-07-14T10:34:01.413Z,49.24
2018-07-14T10:35:01.357Z,47.71
2018-07-14T10:36:01.368Z,46.66
2018-07-14T10:37:01.382Z,46.17
2018-07-14T10:38:01.389Z,45.39
2018-07-14T10:39:01.426Z,46.26
2018-07-14T10:40:01.409Z,46.56
2018-07-14T10:41:01.423Z,47.83
2018-07-14T10:42:01.514Z,45.78
2018-07-14T10:43:01.453Z,45.36
2018-07-14T10:44:01.452Z,45.78
2018-07-14T10:45:01.476Z,47.30
2018-07-14T10:46:01.472Z,49.54
2018-07-14T10:47:01.491Z,49.32
2018-07-14T10:48:01.494Z,50.97
2018-07-14T10:49:01.572Z,51.45
2018-07-14T10:50:01.529Z,50.70
2018-07-14T10:51:01.530Z,49.68
2018-07-14T10:52:01.565Z,49.19
2018-07-14T10:53:01.596Z,48.83
2018-07-14T10:54:01.556Z,47.36
2018-07-14T10:55:01.592Z,48.29
2018-07-14T10:56:01.577Z,46.36
2018-07-14T10:57:01.635Z,45.12
2018-07-14T10:58:01.652Z,45.04
2018-07-14T10:59:01.636Z,44.87
2018-07-14T11:00:01.629Z,44.20
2018-07-14T11:01:01.640Z,44.20
2018-07-14T11:02:01.651Z,43.62
2018-07-14T11:03:01.670Z,43.34
2018-07-14T11:04:01.678Z,43.54
2018-07-14T11:05:01.679Z,42.48
2018-07-14T11:06:01.716Z,40.92
2018-07-14T11:07:01.704Z,41.68
2018-07-14T11:08:01.722Z,41.78
2018-07-14T11:09:01.760Z,41.66
2018-07-14T11:10:01.742Z,41.74
2018-07-14T11:11:01.752Z,44.16
2018-07-14T11:12:01.775Z,43.87
2018-07-14T11:13:01.798Z,42.97
2018-07-14T11:14:01.793Z,42.68
2018-07-14T11:15:01.799Z,43.12
2018-07-14T11:16:01.815Z,45.73
2018-07-14T11:17:01.825Z,45.51
2018-07-14T11:18:01.834Z,46.23
2018-07-14T11:19:01.850Z,48.41
2018-07-14T11:20:01.860Z,50.24
2018-07-14T11:21:01.870Z,50.89
2018-07-14T11:22:01.892Z,51.40
2018-07-14T11:23:01.894Z,51.72
2018-07-14T11:24:04.837Z,50.46
2018-07-14T11:25:01.907Z,50.29
2018-07-14T11:26:01.921Z,49.80
2018-07-14T11:27:01.930Z,50.07
2018-07-14T11:28:01.947Z,50.09
2018-07-14T11:29:01.948Z,50.29
2018-07-14T11:30:01.960Z,50.34
2018-07-14T11:31:01.992Z,49.68
2018-07-14T11:32:01.985Z,47.66
2018-07-14T11:33:01.990Z,47.27
2018-07-14T11:34:01.998Z,46.31
2018-07-14T11:35:02.024Z,46.22
2018-07-14T11:36:02.015Z,46.44
2018-07-14T11:37:02.029Z,45.26
2018-07-14T11:38:02.036Z,45.19
2018-07-14T11:39:02.052Z,45.61
2018-07-14T11:40:02.057Z,44.16
2018-07-14T11:41:02.070Z,42.64
2018-07-14T11:42:02.097Z,41.76
2018-07-14T11:43:02.093Z,41.83
2018-07-14T11:44:02.098Z,42.03
2018-07-14T11:45:02.115Z,42.58
2018-07-14T11:46:02.124Z,43.16
2018-07-14T11:47:02.138Z,43.26
2018-07-14T11:48:02.189Z,43.36
2018-07-14T11:49:02.161Z,43.73
2018-07-14T11:50:02.178Z,44.41
2018-07-14T11:51:02.183Z,44.41
2018-07-14T11:52:02.194Z,44.51
2018-07-14T11:53:02.205Z,44.21
2018-07-14T11:54:02.212Z,43.61
2018-07-14T11:55:02.225Z,44.29
2018-07-14T11:56:02.246Z,43.88
2018-07-14T11:57:02.249Z,44.95
2018-07-14T11:58:02.301Z,45.71
2018-07-14T11:59:02.291Z,45.71
2018-07-14T12:00:02.306Z,46.27
2018-07-14T12:01:02.315Z,47.03
2018-07-14T12:02:02.355Z,47.30
2018-07-14T12:03:02.317Z,47.93
2018-07-14T12:04:02.335Z,49.07
2018-07-14T12:05:02.336Z,50.21
2018-07-14T12:06:02.352Z,50.12
2018-07-14T12:07:03.864Z,50.80
2018-07-14T12:08:02.380Z,50.87
2018-07-14T12:09:02.379Z,52.52
2018-07-14T12:10:02.399Z,51.84
2018-07-14T12:11:02.403Z,51.26
2018-07-14T12:12:02.440Z,51.06
2018-07-14T12:13:02.422Z,51.65
2018-07-14T12:14:02.452Z,52.23
2018-07-14T12:15:02.444Z,52.52
2018-07-14T12:16:02.447Z,52.64
2018-07-14T12:17:02.461Z,50.95
2018-07-14T12:18:02.465Z,49.61
2018-07-14T12:19:02.482Z,50.48
2018-07-14T12:20:02.484Z,48.93
2018-07-14T12:21:02.492Z,48.25
2018-07-14T12:22:02.500Z,49.41
2018-07-14T12:23:02.510Z,49.22
2018-07-14T12:24:02.522Z,49.02
2018-07-14T12:25:02.532Z,48.32
2018-07-14T12:26:02.540Z,49.17
2018-07-14T12:27:02.553Z,50.14
2018-07-14T12:28:02.556Z,49.56
2018-07-14T12:29:02.564Z,50.04
2018-07-14T12:30:02.569Z,50.75
2018-07-14T12:31:02.576Z,50.19
2018-07-14T12:32:02.588Z,49.34
2018-07-14T12:33:02.601Z,47.98
2018-07-14T12:34:02.626Z,46.88
2018-07-14T12:35:02.613Z,47.91
2018-07-14T12:36:02.625Z,48.88
2018-07-14T12:37:02.661Z,49.56
2018-07-14T12:38:02.638Z,50.24
2018-07-14T12:39:02.645Z,50.82
2018-07-14T12:40:02.671Z,49.39
2018-07-14T12:41:02.685Z,49.00
2018-07-14T12:42:02.677Z,48.22
2018-07-14T12:43:02.710Z,48.44
2018-07-14T12:44:02.687Z,48.93
2018-07-14T12:45:02.730Z,47.39
2018-07-14T12:46:02.704Z,47.20
2018-07-14T12:47:02.713Z,47.20
2018-07-14T12:48:02.736Z,49.15
2018-07-14T12:49:02.764Z,47.42
2018-07-14T12:50:02.754Z,46.95
2018-07-14T12:51:02.778Z,45.61
2018-07-14T12:52:02.751Z,43.51